sensor_id;sensor_type;location;lat;lon;timestamp;temperature;humidity
3208;DHT22;1616;52.394;9.756;2023-03-16T00:01:19;1.50;1.00
3208;DHT22;1616;52.394;9.756;2023-03-16T00:03:46;1.40;1.00
3208;DHT22;1616;52.394;9.756;2023-03-16T00:06:12;1.40;1.00
3208;DHT22;1616;52.394;9.756;2023-03-16T00:08:38;1.40;1.00
3208;DHT22;1616;52.394;9.756;2023-03-16T00:11:04;1.40;1.00
3208;DHT22;1616;52.394;9.756;2023-03-16T00:13:30;1.40;1.00
3208;DHT22;1616;52.394;9.756;2023-03-16T00:16:00;1.40;1.00
3208;DHT22;1616;52.394;9.756;2023-03-16T00:18:27;1.40;1.00
3208;DHT22;1616;52.394;9.756;2023-03-16T00:20:55;1.40;1.00
3208;DHT22;1616;52.394;9.756;2023-03-16T00:23:22;1.40;1.00
3208;DHT22;1616;52.394;9.756;2023-03-16T00:25:53;1.30;1.00
3208;DHT22;1616;52.394;9.756;2023-03-16T00:28:20;1.30;1.00
3208;DHT22;1616;52.394;9.756;2023-03-16T00:30:46;1.30;1.00
3208;DHT22;1616;52.394;9.756;2023-03-16T00:33:12;1.20;1.00
3208;DHT22;1616;52.394;9.756;2023-03-16T00:35:38;1.20;1.00
3208;DHT22;1616;52.394;9.756;2023-03-16T00:38:04;1.10;1.00
3208;DHT22;1616;52.394;9.756;2023-03-16T00:40:29;1.20;1.00
3208;DHT22;1616;52.394;9.756;2023-03-16T00:42:55;1.20;1.00
3208;DHT22;1616;52.394;9.756;2023-03-16T00:45:21;1.20;1.00
3208;DHT22;1616;52.394;9.756;2023-03-16T00:47:48;1.20;1.00
3208;DHT22;1616;52.394;9.756;2023-03-16T00:50:14;1.10;1.00
3208;DHT22;1616;52.394;9.756;2023-03-16T00:52:40;1.20;1.00
3208;DHT22;1616;52.394;9.756;2023-03-16T00:55:07;1.20;1.00
3208;DHT22;1616;52.394;9.756;2023-03-16T00:57:33;1.20;1.00
3208;DHT22;1616;52.394;9.756;2023-03-16T00:59:59;1.20;1.00
3208;DHT22;1616;52.394;9.756;2023-03-16T01:02:30;1.20;1.00
3208;DHT22;1616;52.394;9.756;2023-03-16T01:04:56;1.30;1.00
3208;DHT22;1616;52.394;9.756;2023-03-16T01:07:21;1.30;1.00
3208;DHT22;1616;52.394;9.756;2023-03-16T01:09:47;1.30;1.00
3208;DHT22;1616;52.394;9.756;2023-03-16T01:12:16;2.00;1.00
3208;DHT22;1616;52.394;9.756;2023-03-16T01:14:42;1.30;1.00
3208;DHT22;1616;52.394;9.756;2023-03-16T01:17:10;1.30;1.00
3208;DHT22;1616;52.394;9.756;2023-03-16T01:19:38;1.30;1.00
3208;DHT22;1616;52.394;9.756;2023-03-16T01:22:05;1.30;1.00
3208;DHT22;1616;52.394;9.756;2023-03-16T01:24:31;1.30;1.00
3208;DHT22;1616;52.394;9.756;2023-03-16T01:26:57;1.30;1.00
3208;DHT22;1616;52.394;9.756;2023-03-16T01:29:22;1.30;1.00
3208;DHT22;1616;52.394;9.756;2023-03-16T01:31:49;1.20;1.00
3208;DHT22;1616;52.394;9.756;2023-03-16T01:34:15;1.20;1.00
3208;DHT22;1616;52.394;9.756;2023-03-16T01:36:45;1.20;1.00
3208;DHT22;1616;52.394;9.756;2023-03-16T01:39:12;1.10;1.00
3208;DHT22;1616;52.394;9.756;2023-03-16T01:41:39;1.10;1.00
3208;DHT22;1616;52.394;9.756;2023-03-16T01:44:05;1.10;1.00
3208;DHT22;1616;52.394;9.756;2023-03-16T01:46:31;1.10;1.00
3208;DHT22;1616;52.394;9.756;2023-03-16T01:49:10;1.00;1.00
3208;DHT22;1616;52.394;9.756;2023-03-16T01:51:41;1.00;1.00
3208;DHT22;1616;52.394;9.756;2023-03-16T01:54:10;1.00;1.00
3208;DHT22;1616;52.394;9.756;2023-03-16T01:56:58;0.90;1.00
3208;DHT22;1616;52.394;9.756;2023-03-16T01:59:31;0.80;1.00
3208;DHT22;1616;52.394;9.756;2023-03-16T02:01:57;0.90;1.00
3208;DHT22;1616;52.394;9.756;2023-03-16T02:04:43;0.80;1.00
3208;DHT22;1616;52.394;9.756;2023-03-16T02:07:12;0.80;1.00
3208;DHT22;1616;52.394;9.756;2023-03-16T02:09:43;0.80;1.00
3208;DHT22;1616;52.394;9.756;2023-03-16T02:12:12;0.80;1.00
3208;DHT22;1616;52.394;9.756;2023-03-16T02:14:46;0.80;1.00
3208;DHT22;1616;52.394;9.756;2023-03-16T02:17:13;0.80;1.00
3208;DHT22;1616;52.394;9.756;2023-03-16T02:19:49;0.80;1.00
3208;DHT22;1616;52.394;9.756;2023-03-16T02:22:17;0.80;1.00
3208;DHT22;1616;52.394;9.756;2023-03-16T02:24:44;0.70;1.00
3208;DHT22;1616;52.394;9.756;2023-03-16T02:27:12;0.80;1.00
3208;DHT22;1616;52.394;9.756;2023-03-16T02:32:20;0.60;1.00
3208;DHT22;1616;52.394;9.756;2023-03-16T02:34:46;0.70;1.00
3208;DHT22;1616;52.394;9.756;2023-03-16T02:37:12;0.70;1.00
3208;DHT22;1616;52.394;9.756;2023-03-16T02:39:38;0.70;1.00
3208;DHT22;1616;52.394;9.756;2023-03-16T02:42:04;0.50;1.00
3208;DHT22;1616;52.394;9.756;2023-03-16T02:44:33;0.70;1.00
3208;DHT22;1616;52.394;9.756;2023-03-16T02:47:05;0.70;1.00
3208;DHT22;1616;52.394;9.756;2023-03-16T02:49:39;0.70;1.00
3208;DHT22;1616;52.394;9.756;2023-03-16T02:52:07;0.70;1.00
3208;DHT22;1616;52.394;9.756;2023-03-16T02:54:33;0.70;1.00
3208;DHT22;1616;52.394;9.756;2023-03-16T02:56:59;0.70;1.00
3208;DHT22;1616;52.394;9.756;2023-03-16T02:59:24;0.70;1.00
3208;DHT22;1616;52.394;9.756;2023-03-16T03:01:50;0.60;1.00
3208;DHT22;1616;52.394;9.756;2023-03-16T03:04:16;0.70;1.00
3208;DHT22;1616;52.394;9.756;2023-03-16T03:06:42;0.70;1.00
3208;DHT22;1616;52.394;9.756;2023-03-16T03:09:08;0.70;1.00
3208;DHT22;1616;52.394;9.756;2023-03-16T03:11:36;0.70;1.00
3208;DHT22;1616;52.394;9.756;2023-03-16T03:14:02;0.70;1.00
3208;DHT22;1616;52.394;9.756;2023-03-16T03:16:29;0.70;1.00
3208;DHT22;1616;52.394;9.756;2023-03-16T03:18:56;0.70;1.00
3208;DHT22;1616;52.394;9.756;2023-03-16T03:21:22;0.70;1.00
3208;DHT22;1616;52.394;9.756;2023-03-16T03:23:49;0.70;1.00
3208;DHT22;1616;52.394;9.756;2023-03-16T03:26:15;0.70;1.00
3208;DHT22;1616;52.394;9.756;2023-03-16T03:28:41;0.70;1.00
3208;DHT22;1616;52.394;9.756;2023-03-16T03:31:13;0.60;1.00
3208;DHT22;1616;52.394;9.756;2023-03-16T03:33:39;0.70;1.00
3208;DHT22;1616;52.394;9.756;2023-03-16T03:36:05;0.70;1.00
3208;DHT22;1616;52.394;9.756;2023-03-16T03:38:31;0.70;1.00
3208;DHT22;1616;52.394;9.756;2023-03-16T03:40:57;0.70;1.00
3208;DHT22;1616;52.394;9.756;2023-03-16T03:43:25;0.80;1.00
3208;DHT22;1616;52.394;9.756;2023-03-16T03:45:58;0.70;1.00
3208;DHT22;1616;52.394;9.756;2023-03-16T03:48:24;0.70;1.00
3208;DHT22;1616;52.394;9.756;2023-03-16T03:50:50;0.70;1.00
3208;DHT22;1616;52.394;9.756;2023-03-16T03:53:16;0.70;1.00
3208;DHT22;1616;52.394;9.756;2023-03-16T03:55:42;0.70;1.00
3208;DHT22;1616;52.394;9.756;2023-03-16T03:58:08;0.60;1.00
3208;DHT22;1616;52.394;9.756;2023-03-16T04:00:34;0.60;1.00
3208;DHT22;1616;52.394;9.756;2023-03-16T04:03:00;0.60;1.00
3208;DHT22;1616;52.394;9.756;2023-03-16T04:05:26;0.60;1.00
3208;DHT22;1616;52.394;9.756;2023-03-16T04:07:55;0.60;1.00
3208;DHT22;1616;52.394;9.756;2023-03-16T04:10:29;0.50;1.00
3208;DHT22;1616;52.394;9.756;2023-03-16T04:12:56;0.50;1.00
3208;DHT22;1616;52.394;9.756;2023-03-16T04:15:22;0.70;1.00
3208;DHT22;1616;52.394;9.756;2023-03-16T04:17:48;0.60;1.00
3208;DHT22;1616;52.394;9.756;2023-03-16T04:20:15;0.60;1.00
3208;DHT22;1616;52.394;9.756;2023-03-16T04:22:45;0.60;1.00
3208;DHT22;1616;52.394;9.756;2023-03-16T04:25:12;0.70;1.00
3208;DHT22;1616;52.394;9.756;2023-03-16T04:27:40;0.70;1.00
3208;DHT22;1616;52.394;9.756;2023-03-16T04:30:10;0.70;1.00
3208;DHT22;1616;52.394;9.756;2023-03-16T04:32:37;0.70;1.00
3208;DHT22;1616;52.394;9.756;2023-03-16T04:35:03;0.70;1.00
3208;DHT22;1616;52.394;9.756;2023-03-16T04:37:29;0.80;1.00
3208;DHT22;1616;52.394;9.756;2023-03-16T04:39:55;0.80;1.00
3208;DHT22;1616;52.394;9.756;2023-03-16T04:42:21;0.80;1.00
3208;DHT22;1616;52.394;9.756;2023-03-16T04:44:47;0.80;1.00
3208;DHT22;1616;52.394;9.756;2023-03-16T04:47:14;0.80;1.00
3208;DHT22;1616;52.394;9.756;2023-03-16T04:49:42;0.80;1.00
3208;DHT22;1616;52.394;9.756;2023-03-16T04:52:08;0.80;1.00
3208;DHT22;1616;52.394;9.756;2023-03-16T04:54:35;0.70;1.00
3208;DHT22;1616;52.394;9.756;2023-03-16T04:57:00;0.70;1.00
3208;DHT22;1616;52.394;9.756;2023-03-16T04:59:28;0.70;1.00
3208;DHT22;1616;52.394;9.756;2023-03-16T05:01:54;0.70;1.00
3208;DHT22;1616;52.394;9.756;2023-03-16T05:04:19;0.70;1.00
3208;DHT22;1616;52.394;9.756;2023-03-16T05:06:46;0.70;1.00
3208;DHT22;1616;52.394;9.756;2023-03-16T05:09:12;0.60;1.00
3208;DHT22;1616;52.394;9.756;2023-03-16T05:11:38;0.60;1.00
3208;DHT22;1616;52.394;9.756;2023-03-16T05:14:04;0.60;1.00
3208;DHT22;1616;52.394;9.756;2023-03-16T05:16:30;0.60;1.00
3208;DHT22;1616;52.394;9.756;2023-03-16T05:19:00;0.60;1.00
3208;DHT22;1616;52.394;9.756;2023-03-16T05:21:28;0.60;1.00
3208;DHT22;1616;52.394;9.756;2023-03-16T05:23:56;0.60;1.00
3208;DHT22;1616;52.394;9.756;2023-03-16T05:26:22;0.60;1.00
3208;DHT22;1616;52.394;9.756;2023-03-16T05:28:49;0.70;1.00
3208;DHT22;1616;52.394;9.756;2023-03-16T05:31:17;0.60;1.00
3208;DHT22;1616;52.394;9.756;2023-03-16T05:33:42;0.70;1.00
3208;DHT22;1616;52.394;9.756;2023-03-16T05:36:11;0.80;1.00
3208;DHT22;1616;52.394;9.756;2023-03-16T05:38:37;0.80;1.00
3208;DHT22;1616;52.394;9.756;2023-03-16T05:41:03;0.80;1.00
3208;DHT22;1616;52.394;9.756;2023-03-16T05:43:30;0.90;1.00
3208;DHT22;1616;52.394;9.756;2023-03-16T05:45:56;0.90;1.00
3208;DHT22;1616;52.394;9.756;2023-03-16T05:48:22;1.00;1.00
3208;DHT22;1616;52.394;9.756;2023-03-16T05:50:51;1.10;1.00
3208;DHT22;1616;52.394;9.756;2023-03-16T05:53:17;1.10;1.00
3208;DHT22;1616;52.394;9.756;2023-03-16T05:55:43;1.10;1.00
3208;DHT22;1616;52.394;9.756;2023-03-16T05:58:09;1.20;1.00
3208;DHT22;1616;52.394;9.756;2023-03-16T06:00:36;1.30;1.00
3208;DHT22;1616;52.394;9.756;2023-03-16T06:03:04;1.40;1.00
3208;DHT22;1616;52.394;9.756;2023-03-16T06:05:29;1.40;1.00
3208;DHT22;1616;52.394;9.756;2023-03-16T06:07:56;1.80;1.00
3208;DHT22;1616;52.394;9.756;2023-03-16T06:10:22;2.20;1.00
3208;DHT22;1616;52.394;9.756;2023-03-16T06:12:48;2.60;1.00
3208;DHT22;1616;52.394;9.756;2023-03-16T06:15:14;2.70;1.00
3208;DHT22;1616;52.394;9.756;2023-03-16T06:17:40;3.00;1.00
3208;DHT22;1616;52.394;9.756;2023-03-16T06:20:07;3.30;1.00
3208;DHT22;1616;52.394;9.756;2023-03-16T06:22:36;3.70;1.00
3208;DHT22;1616;52.394;9.756;2023-03-16T06:25:03;4.10;1.00
3208;DHT22;1616;52.394;9.756;2023-03-16T06:27:29;4.50;1.00
3208;DHT22;1616;52.394;9.756;2023-03-16T06:29:54;5.00;1.00
3208;DHT22;1616;52.394;9.756;2023-03-16T06:32:20;5.40;1.00
3208;DHT22;1616;52.394;9.756;2023-03-16T06:34:46;5.60;1.00
3208;DHT22;1616;52.394;9.756;2023-03-16T06:37:12;5.60;1.00
3208;DHT22;1616;52.394;9.756;2023-03-16T06:39:38;5.40;1.00
3208;DHT22;1616;52.394;9.756;2023-03-16T06:42:04;5.20;1.00
3208;DHT22;1616;52.394;9.756;2023-03-16T06:44:30;5.00;1.00
3208;DHT22;1616;52.394;9.756;2023-03-16T06:46:56;4.80;1.00
3208;DHT22;1616;52.394;9.756;2023-03-16T06:49:22;4.60;1.00
3208;DHT22;1616;52.394;9.756;2023-03-16T06:51:47;4.50;1.00
3208;DHT22;1616;52.394;9.756;2023-03-16T06:54:13;4.30;1.00
3208;DHT22;1616;52.394;9.756;2023-03-16T06:56:39;4.30;1.00
3208;DHT22;1616;52.394;9.756;2023-03-16T06:59:05;4.30;1.00
3208;DHT22;1616;52.394;9.756;2023-03-16T07:01:31;4.40;1.00
3208;DHT22;1616;52.394;9.756;2023-03-16T07:03:57;4.50;1.00
3208;DHT22;1616;52.394;9.756;2023-03-16T07:06:22;4.70;1.00
3208;DHT22;1616;52.394;9.756;2023-03-16T07:08:48;4.90;1.00
3208;DHT22;1616;52.394;9.756;2023-03-16T07:11:14;5.10;1.00
3208;DHT22;1616;52.394;9.756;2023-03-16T07:13:40;5.30;1.00
3208;DHT22;1616;52.394;9.756;2023-03-16T07:16:07;5.50;1.00
3208;DHT22;1616;52.394;9.756;2023-03-16T07:18:33;5.80;1.00
3208;DHT22;1616;52.394;9.756;2023-03-16T07:20:58;6.30;1.00
3208;DHT22;1616;52.394;9.756;2023-03-16T07:23:25;6.70;1.00
3208;DHT22;1616;52.394;9.756;2023-03-16T07:25:51;7.10;1.00
3208;DHT22;1616;52.394;9.756;2023-03-16T07:28:18;7.40;1.00
3208;DHT22;1616;52.394;9.756;2023-03-16T07:30:46;7.60;1.00
3208;DHT22;1616;52.394;9.756;2023-03-16T07:33:12;8.00;1.00
3208;DHT22;1616;52.394;9.756;2023-03-16T07:35:38;8.40;1.00
3208;DHT22;1616;52.394;9.756;2023-03-16T07:38:04;8.90;1.00
3208;DHT22;1616;52.394;9.756;2023-03-16T07:40:30;9.30;1.00
3208;DHT22;1616;52.394;9.756;2023-03-16T07:42:56;9.70;1.00
3208;DHT22;1616;52.394;9.756;2023-03-16T07:45:21;9.90;1.00
3208;DHT22;1616;52.394;9.756;2023-03-16T07:47:48;10.00;1.00
3208;DHT22;1616;52.394;9.756;2023-03-16T07:50:13;10.20;1.00
3208;DHT22;1616;52.394;9.756;2023-03-16T07:52:41;10.40;1.00
3208;DHT22;1616;52.394;9.756;2023-03-16T07:55:08;10.90;1.00
3208;DHT22;1616;52.394;9.756;2023-03-16T07:57:34;11.30;1.00
3208;DHT22;1616;52.394;9.756;2023-03-16T08:00:00;11.70;1.00
3208;DHT22;1616;52.394;9.756;2023-03-16T08:02:29;11.70;1.00
3208;DHT22;1616;52.394;9.756;2023-03-16T08:04:55;11.50;1.00
3208;DHT22;1616;52.394;9.756;2023-03-16T08:07:21;11.20;1.00
3208;DHT22;1616;52.394;9.756;2023-03-16T08:09:46;11.00;1.00
3208;DHT22;1616;52.394;9.756;2023-03-16T08:12:12;11.10;1.00
3208;DHT22;1616;52.394;9.756;2023-03-16T08:14:38;11.00;1.00
3208;DHT22;1616;52.394;9.756;2023-03-16T08:17:04;11.00;1.00
3208;DHT22;1616;52.394;9.756;2023-03-16T08:19:32;10.90;1.00
3208;DHT22;1616;52.394;9.756;2023-03-16T08:21:58;10.90;1.00
3208;DHT22;1616;52.394;9.756;2023-03-16T08:24:26;10.90;1.00
3208;DHT22;1616;52.394;9.756;2023-03-16T08:26:52;11.00;1.00
3208;DHT22;1616;52.394;9.756;2023-03-16T08:29:18;11.00;1.00
3208;DHT22;1616;52.394;9.756;2023-03-16T08:31:44;11.00;1.00
3208;DHT22;1616;52.394;9.756;2023-03-16T08:34:10;10.90;1.00
3208;DHT22;1616;52.394;9.756;2023-03-16T08:36:36;10.80;1.00
3208;DHT22;1616;52.394;9.756;2023-03-16T08:39:03;11.00;1.00
3208;DHT22;1616;52.394;9.756;2023-03-16T08:41:31;11.50;1.00
3208;DHT22;1616;52.394;9.756;2023-03-16T08:43:58;12.10;1.00
3208;DHT22;1616;52.394;9.756;2023-03-16T08:46:23;12.70;1.00
3208;DHT22;1616;52.394;9.756;2023-03-16T08:48:49;12.80;1.00
3208;DHT22;1616;52.394;9.756;2023-03-16T08:51:15;12.80;1.00
3208;DHT22;1616;52.394;9.756;2023-03-16T08:53:42;12.70;1.00
3208;DHT22;1616;52.394;9.756;2023-03-16T08:56:13;12.60;1.00
3208;DHT22;1616;52.394;9.756;2023-03-16T08:58:40;12.40;1.00
3208;DHT22;1616;52.394;9.756;2023-03-16T09:01:12;12.30;1.00
3208;DHT22;1616;52.394;9.756;2023-03-16T09:03:39;12.30;1.00
3208;DHT22;1616;52.394;9.756;2023-03-16T09:06:11;12.20;1.00
3208;DHT22;1616;52.394;9.756;2023-03-16T09:08:39;12.40;1.00
3208;DHT22;1616;52.394;9.756;2023-03-16T09:11:07;12.70;1.00
3208;DHT22;1616;52.394;9.756;2023-03-16T09:13:34;13.10;1.00
3208;DHT22;1616;52.394;9.756;2023-03-16T09:16:01;13.70;1.00
3208;DHT22;1616;52.394;9.756;2023-03-16T09:18:27;14.30;1.00
3208;DHT22;1616;52.394;9.756;2023-03-16T09:20:58;14.70;1.00
3208;DHT22;1616;52.394;9.756;2023-03-16T09:23:24;15.10;1.00
3208;DHT22;1616;52.394;9.756;2023-03-16T09:25:50;15.40;1.00
3208;DHT22;1616;52.394;9.756;2023-03-16T09:28:18;15.70;1.00
3208;DHT22;1616;52.394;9.756;2023-03-16T09:30:44;16.20;1.00
3208;DHT22;1616;52.394;9.756;2023-03-16T09:33:10;16.30;1.00
3208;DHT22;1616;52.394;9.756;2023-03-16T09:35:36;16.40;1.00
3208;DHT22;1616;52.394;9.756;2023-03-16T09:38:02;16.50;1.00
3208;DHT22;1616;52.394;9.756;2023-03-16T09:40:29;16.60;1.00
3208;DHT22;1616;52.394;9.756;2023-03-16T09:43:38;16.60;1.00
3208;DHT22;1616;52.394;9.756;2023-03-16T09:48:24;17.00;1.00
3208;DHT22;1616;52.394;9.756;2023-03-16T09:50:50;17.20;1.00
3208;DHT22;1616;52.394;9.756;2023-03-16T09:53:26;17.10;1.00
3208;DHT22;1616;52.394;9.756;2023-03-16T09:56:11;16.80;1.00
3208;DHT22;1616;52.394;9.756;2023-03-16T09:58:40;16.50;1.00
3208;DHT22;1616;52.394;9.756;2023-03-16T10:01:34;16.40;1.00
3208;DHT22;1616;52.394;9.756;2023-03-16T10:06:54;16.40;1.00
3208;DHT22;1616;52.394;9.756;2023-03-16T10:09:55;16.40;1.00
3208;DHT22;1616;52.394;9.756;2023-03-16T10:12:28;16.40;1.00
3208;DHT22;1616;52.394;9.756;2023-03-16T10:15:05;16.40;1.00
3208;DHT22;1616;52.394;9.756;2023-03-16T10:17:45;16.50;1.00
3208;DHT22;1616;52.394;9.756;2023-03-16T10:20:17;16.70;1.00
3208;DHT22;1616;52.394;9.756;2023-03-16T10:22:45;17.00;1.00
3208;DHT22;1616;52.394;9.756;2023-03-16T10:25:42;17.20;1.00
3208;DHT22;1616;52.394;9.756;2023-03-16T10:28:17;17.50;1.00
3208;DHT22;1616;52.394;9.756;2023-03-16T10:30:44;17.60;1.00
3208;DHT22;1616;52.394;9.756;2023-03-16T10:33:31;17.60;1.00
3208;DHT22;1616;52.394;9.756;2023-03-16T10:36:02;17.50;1.00
3208;DHT22;1616;52.394;9.756;2023-03-16T10:41:18;17.30;1.00
3208;DHT22;1616;52.394;9.756;2023-03-16T10:43:50;17.20;1.00
3208;DHT22;1616;52.394;9.756;2023-03-16T10:46:17;17.00;1.00
3208;DHT22;1616;52.394;9.756;2023-03-16T10:48:51;16.70;1.00
3208;DHT22;1616;52.394;9.756;2023-03-16T10:51:18;16.40;1.00
3208;DHT22;1616;52.394;9.756;2023-03-16T10:53:46;16.20;1.00
3208;DHT22;1616;52.394;9.756;2023-03-16T10:56:22;16.30;1.00
3208;DHT22;1616;52.394;9.756;2023-03-16T10:58:50;16.60;1.00
3208;DHT22;1616;52.394;9.756;2023-03-16T11:01:23;16.80;1.00
3208;DHT22;1616;52.394;9.756;2023-03-16T11:03:52;17.00;1.00
3208;DHT22;1616;52.394;9.756;2023-03-16T11:06:27;17.20;1.00
3208;DHT22;1616;52.394;9.756;2023-03-16T11:09:13;17.40;1.00
3208;DHT22;1616;52.394;9.756;2023-03-16T11:11:45;17.60;1.00
3208;DHT22;1616;52.394;9.756;2023-03-16T11:14:13;17.70;1.00
3208;DHT22;1616;52.394;9.756;2023-03-16T11:19:51;18.20;1.00
3208;DHT22;1616;52.394;9.756;2023-03-16T11:22:21;18.40;1.00
3208;DHT22;1616;52.394;9.756;2023-03-16T11:25:12;18.60;1.00
3208;DHT22;1616;52.394;9.756;2023-03-16T11:27:57;18.80;1.00
3208;DHT22;1616;52.394;9.756;2023-03-16T11:30:32;18.60;1.00
3208;DHT22;1616;52.394;9.756;2023-03-16T11:32:59;18.40;1.00
3208;DHT22;1616;52.394;9.756;2023-03-16T11:38:13;17.80;1.00
3208;DHT22;1616;52.394;9.756;2023-03-16T11:40:59;17.80;1.00
3208;DHT22;1616;52.394;9.756;2023-03-16T12:00:07;18.20;1.00
3208;DHT22;1616;52.394;9.756;2023-03-16T12:05:19;17.30;1.00
3208;DHT22;1616;52.394;9.756;2023-03-16T12:08:21;16.90;1.00
3208;DHT22;1616;52.394;9.756;2023-03-16T12:10:58;16.90;1.00
3208;DHT22;1616;52.394;9.756;2023-03-16T12:13:39;17.00;1.00
3208;DHT22;1616;52.394;9.756;2023-03-16T12:19:11;17.20;1.00
3208;DHT22;1616;52.394;9.756;2023-03-16T12:21:42;17.10;1.00
3208;DHT22;1616;52.394;9.756;2023-03-16T12:24:22;17.00;1.00
3208;DHT22;1616;52.394;9.756;2023-03-16T12:26:51;16.90;1.00
3208;DHT22;1616;52.394;9.756;2023-03-16T12:29:26;16.90;1.00
3208;DHT22;1616;52.394;9.756;2023-03-16T12:32:20;16.90;1.00
3208;DHT22;1616;52.394;9.756;2023-03-16T12:35:16;16.90;1.00
3208;DHT22;1616;52.394;9.756;2023-03-16T12:37:55;16.80;1.00
3208;DHT22;1616;52.394;9.756;2023-03-16T12:40:45;16.50;1.00
3208;DHT22;1616;52.394;9.756;2023-03-16T12:43:19;16.30;1.00
3208;DHT22;1616;52.394;9.756;2023-03-16T12:46:02;16.10;1.00
3208;DHT22;1616;52.394;9.756;2023-03-16T12:48:32;16.20;1.00
3208;DHT22;1616;52.394;9.756;2023-03-16T12:51:02;16.20;1.00
3208;DHT22;1616;52.394;9.756;2023-03-16T12:53:55;16.10;1.00
3208;DHT22;1616;52.394;9.756;2023-03-16T12:58:59;15.70;1.00
3208;DHT22;1616;52.394;9.756;2023-03-16T13:01:44;15.40;1.00
3208;DHT22;1616;52.394;9.756;2023-03-16T13:04:17;15.00;1.00
3208;DHT22;1616;52.394;9.756;2023-03-16T13:06:50;14.70;1.00
3208;DHT22;1616;52.394;9.756;2023-03-16T13:09:27;14.40;1.00
3208;DHT22;1616;52.394;9.756;2023-03-16T13:11:53;14.10;1.00
3208;DHT22;1616;52.394;9.756;2023-03-16T13:14:48;13.90;1.00
3208;DHT22;1616;52.394;9.756;2023-03-16T13:19:57;13.70;1.00
3208;DHT22;1616;52.394;9.756;2023-03-16T13:22:29;13.70;1.00
3208;DHT22;1616;52.394;9.756;2023-03-16T13:25:21;13.80;1.00
3208;DHT22;1616;52.394;9.756;2023-03-16T13:27:50;13.80;1.00
3208;DHT22;1616;52.394;9.756;2023-03-16T13:30:26;13.70;1.00
3208;DHT22;1616;52.394;9.756;2023-03-16T13:32:55;13.70;1.00
3208;DHT22;1616;52.394;9.756;2023-03-16T13:35:26;13.60;1.00
3208;DHT22;1616;52.394;9.756;2023-03-16T13:37:52;13.50;1.00
3208;DHT22;1616;52.394;9.756;2023-03-16T13:40:21;13.50;1.00
3208;DHT22;1616;52.394;9.756;2023-03-16T13:42:49;13.40;1.00
3208;DHT22;1616;52.394;9.756;2023-03-16T13:45:26;13.40;1.00
3208;DHT22;1616;52.394;9.756;2023-03-16T13:47:52;13.40;1.00
3208;DHT22;1616;52.394;9.756;2023-03-16T13:50:19;13.40;1.00
3208;DHT22;1616;52.394;9.756;2023-03-16T13:53:00;13.50;1.00
3208;DHT22;1616;52.394;9.756;2023-03-16T13:55:30;13.50;1.00
3208;DHT22;1616;52.394;9.756;2023-03-16T13:57:56;13.30;1.00
3208;DHT22;1616;52.394;9.756;2023-03-16T14:00:25;13.20;1.00
3208;DHT22;1616;52.394;9.756;2023-03-16T14:02:54;13.10;1.00
3208;DHT22;1616;52.394;9.756;2023-03-16T14:05:30;13.00;1.00
3208;DHT22;1616;52.394;9.756;2023-03-16T14:07:58;13.00;1.00
3208;DHT22;1616;52.394;9.756;2023-03-16T14:10:35;12.90;1.00
3208;DHT22;1616;52.394;9.756;2023-03-16T14:15:46;12.80;1.00
3208;DHT22;1616;52.394;9.756;2023-03-16T14:18:15;12.70;1.00
3208;DHT22;1616;52.394;9.756;2023-03-16T14:20:46;12.50;1.00
3208;DHT22;1616;52.394;9.756;2023-03-16T14:23:36;12.40;1.00
3208;DHT22;1616;52.394;9.756;2023-03-16T14:26:05;12.30;1.00
3208;DHT22;1616;52.394;9.756;2023-03-16T14:28:32;12.20;1.00
3208;DHT22;1616;52.394;9.756;2023-03-16T14:31:05;12.10;1.00
3208;DHT22;1616;52.394;9.756;2023-03-16T14:33:34;12.00;1.00
3208;DHT22;1616;52.394;9.756;2023-03-16T14:36:14;11.90;1.00
3208;DHT22;1616;52.394;9.756;2023-03-16T14:38:42;11.80;1.00
3208;DHT22;1616;52.394;9.756;2023-03-16T14:43:47;11.70;1.00
3208;DHT22;1616;52.394;9.756;2023-03-16T14:46:31;11.50;1.00
3208;DHT22;1616;52.394;9.756;2023-03-16T14:49:23;11.40;1.00
3208;DHT22;1616;52.394;9.756;2023-03-16T14:51:51;11.40;1.00
3208;DHT22;1616;52.394;9.756;2023-03-16T14:54:19;11.30;1.00
3208;DHT22;1616;52.394;9.756;2023-03-16T14:56:50;11.20;1.00
3208;DHT22;1616;52.394;9.756;2023-03-16T14:59:17;11.10;1.00
3208;DHT22;1616;52.394;9.756;2023-03-16T15:01:44;11.10;1.00
3208;DHT22;1616;52.394;9.756;2023-03-16T15:04:16;11.20;1.00
3208;DHT22;1616;52.394;9.756;2023-03-16T15:06:44;11.20;1.00
3208;DHT22;1616;52.394;9.756;2023-03-16T15:09:34;11.20;1.00
3208;DHT22;1616;52.394;9.756;2023-03-16T15:12:01;11.20;1.00
3208;DHT22;1616;52.394;9.756;2023-03-16T15:14:27;11.10;1.00
3208;DHT22;1616;52.394;9.756;2023-03-16T15:17:11;11.10;1.00
3208;DHT22;1616;52.394;9.756;2023-03-16T15:19:37;11.00;1.00
3208;DHT22;1616;52.394;9.756;2023-03-16T15:22:04;11.00;1.00
3208;DHT22;1616;52.394;9.756;2023-03-16T15:24:30;10.90;1.00
3208;DHT22;1616;52.394;9.756;2023-03-16T15:26:58;10.90;1.00
3208;DHT22;1616;52.394;9.756;2023-03-16T15:29:23;10.80;1.00
3208;DHT22;1616;52.394;9.756;2023-03-16T15:31:49;10.80;1.00
3208;DHT22;1616;52.394;9.756;2023-03-16T15:34:15;10.80;1.00
3208;DHT22;1616;52.394;9.756;2023-03-16T15:36:41;10.70;1.00
3208;DHT22;1616;52.394;9.756;2023-03-16T15:39:20;10.70;1.00
3208;DHT22;1616;52.394;9.756;2023-03-16T15:41:48;10.60;1.00
3208;DHT22;1616;52.394;9.756;2023-03-16T15:44:13;10.60;1.00
3208;DHT22;1616;52.394;9.756;2023-03-16T15:46:39;10.60;1.00
3208;DHT22;1616;52.394;9.756;2023-03-16T15:49:04;10.60;1.00
3208;DHT22;1616;52.394;9.756;2023-03-16T15:51:31;10.70;1.00
3208;DHT22;1616;52.394;9.756;2023-03-16T15:54:00;10.70;1.00
3208;DHT22;1616;52.394;9.756;2023-03-16T15:56:37;10.60;1.00
3208;DHT22;1616;52.394;9.756;2023-03-16T15:59:10;10.60;1.00
3208;DHT22;1616;52.394;9.756;2023-03-16T16:01:43;10.50;1.00
3208;DHT22;1616;52.394;9.756;2023-03-16T16:04:17;10.50;1.00
3208;DHT22;1616;52.394;9.756;2023-03-16T16:06:47;10.40;1.00
3208;DHT22;1616;52.394;9.756;2023-03-16T16:09:13;10.30;1.00
3208;DHT22;1616;52.394;9.756;2023-03-16T16:11:40;10.20;1.00
3208;DHT22;1616;52.394;9.756;2023-03-16T16:14:11;10.60;1.00
3208;DHT22;1616;52.394;9.756;2023-03-16T16:16:38;10.30;1.00
3208;DHT22;1616;52.394;9.756;2023-03-16T16:19:05;10.30;1.00
3208;DHT22;1616;52.394;9.756;2023-03-16T16:21:31;10.20;1.00
3208;DHT22;1616;52.394;9.756;2023-03-16T16:23:58;10.20;1.00
3208;DHT22;1616;52.394;9.756;2023-03-16T16:28:54;10.20;1.00
3208;DHT22;1616;52.394;9.756;2023-03-16T16:31:23;10.10;1.00
3208;DHT22;1616;52.394;9.756;2023-03-16T16:33:49;10.10;1.00
3208;DHT22;1616;52.394;9.756;2023-03-16T16:36:16;10.10;1.00
3208;DHT22;1616;52.394;9.756;2023-03-16T16:38:45;10.10;1.00
3208;DHT22;1616;52.394;9.756;2023-03-16T16:41:22;10.10;1.00
3208;DHT22;1616;52.394;9.756;2023-03-16T16:43:48;10.00;1.00
3208;DHT22;1616;52.394;9.756;2023-03-16T16:46:21;10.00;1.00
3208;DHT22;1616;52.394;9.756;2023-03-16T16:48:53;10.00;1.00
3208;DHT22;1616;52.394;9.756;2023-03-16T16:51:24;10.00;1.00
3208;DHT22;1616;52.394;9.756;2023-03-16T16:53:52;9.90;1.00
3208;DHT22;1616;52.394;9.756;2023-03-16T16:56:28;9.90;1.00
3208;DHT22;1616;52.394;9.756;2023-03-16T16:58:56;9.90;1.00
3208;DHT22;1616;52.394;9.756;2023-03-16T17:01:27;9.80;1.00
3208;DHT22;1616;52.394;9.756;2023-03-16T17:03:54;9.80;1.00
3208;DHT22;1616;52.394;9.756;2023-03-16T17:06:20;9.80;1.00
3208;DHT22;1616;52.394;9.756;2023-03-16T17:08:46;9.70;1.00
3208;DHT22;1616;52.394;9.756;2023-03-16T17:11:17;9.70;1.00
3208;DHT22;1616;52.394;9.756;2023-03-16T17:13:43;9.70;1.00
3208;DHT22;1616;52.394;9.756;2023-03-16T17:16:16;9.60;1.00
3208;DHT22;1616;52.394;9.756;2023-03-16T17:18:43;9.70;1.00
3208;DHT22;1616;52.394;9.756;2023-03-16T17:21:17;9.50;1.00
3208;DHT22;1616;52.394;9.756;2023-03-16T17:23:44;9.50;1.00
3208;DHT22;1616;52.394;9.756;2023-03-16T17:26:16;9.50;1.00
3208;DHT22;1616;52.394;9.756;2023-03-16T17:28:52;9.50;1.00
3208;DHT22;1616;52.394;9.756;2023-03-16T17:31:25;9.50;1.00
3208;DHT22;1616;52.394;9.756;2023-03-16T17:33:52;9.40;1.00